Zalophus — WDG7231 — position and weather

sailwx.info

Track history (hours):
 
Tides and Currents Weather Stations Pressure Air Temp Water Temp Dewpoint Dewpoint Depression Visibility Wind Speed Wind Dir Waves Ship Positions

Zalophus

Owner: Golden Gate Scenic Steamship Corp, San Francisco, CA. More information available from US FCC via Universal Licensing System and Coast Guard Vessel Documentation Center.

Last reported at 2017-Nov-29 02:33 UTC. Time now 2017-Dec-12 02:47 UTC.
Position N 37°49' W 122°25'.
Warning: this ship's position is 13 days out of date.

Length 47 m; draft 3 m.

Type: Passenger vessel. MMSI: 367565170.

Date/timePositionNaut miles runAvg speedWind from/ knotsBaromVisibWave heightAir tempDewpointWater temp
2017-Nov-29 02:33N 37°49' W 122°25'0 0.0
2017-Nov-29 02:30N 37°49' W 122°25'0 0.0
2017-Nov-29 02:00N 37°49' W 122°25'2 4.8
2017-Nov-29 01:31N 37°47' W 122°23'2 3.9
2017-Nov-29 01:00N 37°49' W 122°23'3 6.5
2017-Nov-29 00:31N 37°50' W 122°27'2 3.7
2017-Nov-29 00:01N 37°49' W 122°25'0 0.2
2017-Nov-28 23:30N 37°49' W 122°25'0 0.0
2017-Nov-28 23:00N 37°49' W 122°25'0 0.0
2017-Nov-28 22:30N 37°49' W 122°25'0 0.0
2017-Nov-28 22:00N 37°49' W 122°25'0 0.0
2017-Nov-28 21:30N 37°49' W 122°25'  
2017-Nov-24 03:39N 37°49' W 122°25'0 0.0
2017-Nov-24 03:30N 37°49' W 122°25'2 4.8
2017-Nov-24 03:01N 37°47' W 122°23'3 6.0
2017-Nov-24 02:31N 37°50' W 122°24'4 7.2
2017-Nov-24 02:00N 37°49' W 122°29'3 6.2
2017-Nov-24 01:30N 37°49' W 122°25'0 0.0
2017-Nov-24 01:00N 37°49' W 122°25'1 1.5
2017-Nov-24 00:30N 37°49' W 122°25'2 4.3
2017-Nov-24 00:01N 37°49' W 122°28'2 4.2
2017-Nov-23 23:30N 37°49' W 122°25'2 4.2
2017-Nov-23 23:00N 37°49' W 122°27'2 4.2
2017-Nov-23 22:30N 37°49' W 122°25'0 1.0
2017-Nov-23 22:00N 37°49' W 122°24'3 6.1
2017-Nov-23 21:30N 37°49' W 122°28'3 5.5
2017-Nov-23 21:00N 37°49' W 122°25'0 0.0
2017-Nov-23 20:30N 37°49' W 122°25'1 2.2
2017-Nov-23 20:00N 37°50' W 122°25'1 3.0
2017-Nov-23 19:30N 37°49' W 122°27'1 3.0
2017-Nov-23 19:00N 37°49' W 122°25'3 5.8
2017-Nov-23 18:30N 37°49' W 122°29'3 5.9
2017-Nov-23 18:00N 37°49' W 122°25'  
Track history (hours):
 
Tides and Currents Weather Stations Pressure Air Temp Water Temp Dewpoint Dewpoint Depression Visibility Wind Speed Wind Dir Waves Ship Positions

Zalophus

Owner: Golden Gate Scenic Steamship Corp, San Francisco, CA. More information available from US FCC via Universal Licensing System and Coast Guard Vessel Documentation Center.

Last reported at 2017-Nov-29 02:33 UTC. Time now 2017-Dec-12 02:47 UTC.
Position N 37°49' W 122°25'.
Warning: this ship's position is 13 days out of date.

Length 47 m; draft 3 m.

Type: Passenger vessel. MMSI: 367565170.

Date/timePositionNaut miles runAvg speedWind from/ knotsBaromVisibWave heightAir tempDewpointWater temp
2017-Nov-29 02:33N 37°49' W 122°25'0 0.0
2017-Nov-29 02:30N 37°49' W 122°25'0 0.0
2017-Nov-29 02:00N 37°49' W 122°25'2 4.8
2017-Nov-29 01:31N 37°47' W 122°23'2 3.9
2017-Nov-29 01:00N 37°49' W 122°23'3 6.5
2017-Nov-29 00:31N 37°50' W 122°27'2 3.7
2017-Nov-29 00:01N 37°49' W 122°25'0 0.2
2017-Nov-28 23:30N 37°49' W 122°25'0 0.0
2017-Nov-28 23:00N 37°49' W 122°25'0 0.0
2017-Nov-28 22:30N 37°49' W 122°25'0 0.0
2017-Nov-28 22:00N 37°49' W 122°25'0 0.0
2017-Nov-28 21:30N 37°49' W 122°25'  
2017-Nov-24 03:39N 37°49' W 122°25'0 0.0
2017-Nov-24 03:30N 37°49' W 122°25'2 4.8
2017-Nov-24 03:01N 37°47' W 122°23'3 6.0
2017-Nov-24 02:31N 37°50' W 122°24'4 7.2
2017-Nov-24 02:00N 37°49' W 122°29'3 6.2
2017-Nov-24 01:30N 37°49' W 122°25'0 0.0
2017-Nov-24 01:00N 37°49' W 122°25'1 1.5
2017-Nov-24 00:30N 37°49' W 122°25'2 4.3
2017-Nov-24 00:01N 37°49' W 122°28'2 4.2
2017-Nov-23 23:30N 37°49' W 122°25'2 4.2
2017-Nov-23 23:00N 37°49' W 122°27'2 4.2
2017-Nov-23 22:30N 37°49' W 122°25'0 1.0
2017-Nov-23 22:00N 37°49' W 122°24'3 6.1
2017-Nov-23 21:30N 37°49' W 122°28'3 5.5
2017-Nov-23 21:00N 37°49' W 122°25'0 0.0
2017-Nov-23 20:30N 37°49' W 122°25'1 2.2
2017-Nov-23 20:00N 37°50' W 122°25'1 3.0
2017-Nov-23 19:30N 37°49' W 122°27'1 3.0
2017-Nov-23 19:00N 37°49' W 122°25'3 5.8
2017-Nov-23 18:30N 37°49' W 122°29'3 5.9
2017-Nov-23 18:00N 37°49' W 122°25'  

Dump ship's entire track history